Time;durP1;ratioP1;P1;durP2;ratioP2;P2;SDS_P1;SDS_P2;PMS_P1;PMS_P2;Temp;Humidity;BMP_temperature;BMP_pressure;BME280_temperature;BME280_humidity;BME280_pressure;Samples;Min_cycle;Max_cycle;Signal;HPM_P1;HPM_P2
2024/04/21 00:01:41;;;;;;;2.10;1.25;;;23.60;45.90;;;;;;6561065;26;79563;-60
2024/04/21 00:04:41;;;;;;;1.67;0.98;;;23.60;45.80;;;;;;6566726;26;80795;-62
2024/04/21 00:07:42;;;;;;;1.45;1.25;;;23.60;45.60;;;;;;6569273;26;79102;-61
2024/04/21 00:10:43;;;;;;;1.33;1.00;;;23.60;45.70;;;;;;6556319;26;78588;-61
2024/04/21 00:13:43;;;;;;;0.82;0.80;;;23.60;45.50;;;;;;6578534;26;79010;-60
2024/04/21 00:16:43;;;;;;;1.63;0.80;;;23.60;45.50;;;;;;6558427;26;78679;-60
2024/04/21 00:19:44;;;;;;;0.80;0.80;;;23.60;45.50;;;;;;6569463;26;79256;-61
2024/04/21 00:22:44;;;;;;;1.15;1.05;;;23.60;45.50;;;;;;6561080;26;78690;-58
2024/04/21 00:25:45;;;;;;;1.00;0.90;;;23.60;45.50;;;;;;6564970;26;78960;-57
2024/04/21 00:28:47;;;;;;;1.15;0.93;;;23.60;45.50;;;;;;6554705;26;81564;-58
2024/04/21 00:31:48;;;;;;;1.67;1.13;;;23.60;45.60;;;;;;6605135;26;80382;-58
2024/04/21 00:34:49;;;;;;;1.42;1.02;;;23.60;45.50;;;;;;6578520;26;83898;-58
2024/04/21 00:37:49;;;;;;;1.73;1.33;;;23.50;45.40;;;;;;6573989;26;79273;-58
2024/04/21 00:40:50;;;;;;;1.83;1.05;;;23.50;45.40;;;;;;6597066;26;79199;-58
2024/04/21 00:43:50;;;;;;;1.55;1.13;;;23.50;45.40;;;;;;6599704;26;81315;-58
2024/04/21 00:46:51;;;;;;;1.23;0.98;;;23.50;45.40;;;;;;6599221;26;79169;-58
2024/04/21 00:49:51;;;;;;;1.35;1.15;;;23.50;45.30;;;;;;6589842;26;78952;-58
2024/04/21 00:52:52;;;;;;;1.35;1.02;;;23.50;45.20;;;;;;6600899;26;80803;-58
2024/04/21 00:55:52;;;;;;;1.83;1.00;;;23.50;45.20;;;;;;6598422;26;79175;-58
2024/04/21 00:58:53;;;;;;;1.25;1.00;;;23.50;45.10;;;;;;6612066;26;79058;-58
2024/04/21 01:01:53;;;;;;;1.30;1.08;;;23.50;45.10;;;;;;6572628;26;82383;-58
2024/04/21 01:04:54;;;;;;;1.10;1.00;;;23.50;45.20;;;;;;6539177;26;80413;-59
2024/04/21 01:07:54;;;;;;;1.20;1.10;;;23.60;45.20;;;;;;6539173;26;79266;-59
2024/04/21 01:10:55;;;;;;;1.27;1.13;;;23.60;45.30;;;;;;6550829;26;86308;-58
2024/04/21 01:13:55;;;;;;;1.65;1.30;;;23.50;45.20;;;;;;6538097;26;79180;-59
2024/04/21 01:16:56;;;;;;;1.42;0.90;;;23.50;45.10;;;;;;6536693;26;78914;-58
2024/04/21 01:19:57;;;;;;;1.17;1.02;;;23.50;45.10;;;;;;6537608;26;79929;-58
2024/04/21 01:22:57;;;;;;;1.33;1.15;;;23.60;45.10;;;;;;6541335;26;79064;-58
2024/04/21 01:25:58;;;;;;;1.48;1.05;;;23.60;45.00;;;;;;6538649;26;78759;-56
2024/04/21 01:28:59;;;;;;;1.67;1.20;;;23.50;44.90;;;;;;6538225;26;78903;-58
2024/04/21 01:31:59;;;;;;;1.60;1.23;;;23.60;44.90;;;;;;6539894;26;86526;-57
2024/04/21 01:35:00;;;;;;;2.47;1.27;;;23.50;44.80;;;;;;6571908;26;82571;-57
2024/04/21 01:38:00;;;;;;;1.63;0.98;;;23.50;44.90;;;;;;6573884;26;78869;-59
2024/04/21 01:41:01;;;;;;;1.45;1.10;;;23.50;44.80;;;;;;6566161;26;79288;-59
2024/04/21 01:44:01;;;;;;;1.35;1.13;;;23.50;44.80;;;;;;6536767;26;78976;-59
2024/04/21 01:47:02;;;;;;;1.83;1.27;;;23.50;44.80;;;;;;6559838;26;79036;-59
2024/04/21 01:50:02;;;;;;;1.10;1.00;;;23.50;44.80;;;;;;6557953;26;78875;-59
2024/04/21 01:53:03;;;;;;;1.42;1.05;;;23.50;44.80;;;;;;6537747;26;78489;-59
2024/04/21 01:56:03;;;;;;;2.35;1.13;;;23.50;44.70;;;;;;6539815;26;84787;-61
2024/04/21 01:59:04;;;;;;;1.15;0.85;;;23.50;44.70;;;;;;6565165;26;80109;-61
2024/04/21 02:02:05;;;;;;;2.70;1.02;;;23.50;44.70;;;;;;6562842;26;79217;-61
2024/04/21 02:05:05;;;;;;;0.70;0.60;;;23.50;44.60;;;;;;6563622;26;78875;-61
2024/04/21 02:08:06;;;;;;;1.30;1.10;;;23.50;44.70;;;;;;6580674;26;79285;-62
2024/04/21 02:11:06;;;;;;;0.90;0.75;;;23.50;44.60;;;;;;6598197;26;79024;-61
2024/04/21 02:14:07;;;;;;;1.63;1.10;;;23.50;44.60;;;;;;6580512;26;80976;-54
2024/04/21 02:17:07;;;;;;;1.10;0.93;;;23.50;44.60;;;;;;6601323;26;79173;-52
2024/04/21 02:20:08;;;;;;;0.90;0.90;;;23.50;44.50;;;;;;6576002;26;80973;-54
2024/04/21 02:23:08;;;;;;;1.05;0.90;;;23.50;44.50;;;;;;6592575;26;79034;-56
2024/04/21 02:26:09;;;;;;;0.98;0.85;;;23.50;44.40;;;;;;6620037;26;80455;-56
2024/04/21 02:29:09;;;;;;;1.15;0.82;;;23.50;44.40;;;;;;6599108;26;79094;-56
2024/04/21 02:32:10;;;;;;;1.13;0.82;;;23.50;44.40;;;;;;6577642;26;80354;-56
2024/04/21 02:35:10;;;;;;;0.90;0.80;;;23.50;44.30;;;;;;6605315;26;79695;-55
2024/04/21 02:38:11;;;;;;;1.00;0.90;;;23.50;44.30;;;;;;6601264;26;79910;-58
2024/04/21 02:41:11;;;;;;;0.75;0.75;;;23.50;44.30;;;;;;6568976;26;82148;-56
2024/04/21 02:44:12;;;;;;;1.55;0.82;;;23.50;44.20;;;;;;6560617;26;79382;-56
2024/04/21 02:47:12;;;;;;;1.33;0.88;;;23.50;44.30;;;;;;6540640;26;79004;-57
2024/04/21 02:50:13;;;;;;;1.40;1.00;;;23.50;44.30;;;;;;6539604;26;82724;-56
2024/04/21 02:53:13;;;;;;;1.85;1.00;;;23.50;44.30;;;;;;6543135;26;80011;-55
2024/04/21 02:56:14;;;;;;;1.15;0.95;;;23.50;44.20;;;;;;6558938;26;79950;-57
2024/04/21 02:59:15;;;;;;;1.20;0.93;;;23.50;44.20;;;;;;6540043;26;79333;-59
2024/04/21 03:02:15;;;;;;;2.40;0.90;;;23.50;44.40;;;;;;6551646;26;79504;-59
2024/04/21 03:05:16;;;;;;;1.17;0.90;;;23.50;44.40;;;;;;6546639;26;79144;-58
2024/04/21 03:08:16;;;;;;;1.95;0.98;;;23.50;44.30;;;;;;6540312;26;83664;-59
2024/04/21 03:11:17;;;;;;;1.80;1.10;;;23.50;44.30;;;;;;6541245;26;80897;-58
2024/04/21 03:14:17;;;;;;;0.80;0.80;;;23.40;44.40;;;;;;6539880;26;79763;-58
2024/04/21 03:17:21;;;;;;;0.68;0.68;;;23.40;44.50;;;;;;6540056;26;79082;-59
2024/04/21 03:20:21;;;;;;;1.75;0.85;;;23.40;44.50;;;;;;6562576;26;82623;-56
2024/04/21 03:23:22;;;;;;;0.98;0.63;;;23.40;44.50;;;;;;6539568;26;79435;-57
2024/04/21 03:26:23;;;;;;;1.90;0.80;;;23.40;44.60;;;;;;6539988;26;79927;-61
2024/04/21 03:29:23;;;;;;;1.13;0.90;;;23.50;44.70;;;;;;6540370;26;79749;-62
2024/04/21 03:32:24;;;;;;;1.52;0.80;;;23.40;44.70;;;;;;6539340;26;79919;-62
2024/04/21 03:35:25;;;;;;;0.93;0.88;;;23.40;44.50;;;;;;6539721;26;80406;-62
2024/04/21 03:38:25;;;;;;;1.00;0.90;;;23.40;44.40;;;;;;6572221;26;78745;-61
2024/04/21 03:41:26;;;;;;;0.88;0.80;;;23.40;44.50;;;;;;6581209;26;79460;-61
2024/04/21 03:44:26;;;;;;;1.13;0.75;;;23.50;44.60;;;;;;6543272;26;80868;-61
2024/04/21 03:47:27;;;;;;;1.02;0.68;;;23.50;45.00;;;;;;6553710;26;78782;-62
2024/04/21 03:50:28;;;;;;;0.93;0.70;;;23.50;44.90;;;;;;6584884;26;83318;-61
2024/04/21 03:53:28;;;;;;;0.93;0.82;;;23.50;44.80;;;;;;6552434;26;78898;-61
2024/04/21 03:56:29;;;;;;;1.08;0.90;;;23.50;45.00;;;;;;6539954;26;79339;-61
2024/04/21 03:59:29;;;;;;;0.75;0.70;;;23.50;45.30;;;;;;6540257;26;79250;-61
2024/04/21 04:02:30;;;;;;;2.33;0.80;;;23.50;45.30;;;;;;6537695;26;80775;-61
2024/04/21 04:05:31;;;;;;;5.80;1.00;;;23.50;45.40;;;;;;6579506;26;78977;-61
2024/04/21 04:08:31;;;;;;;0.63;0.63;;;23.50;45.40;;;;;;6544462;26;78982;-62
2024/04/21 04:11:32;;;;;;;1.38;0.90;;;23.50;45.40;;;;;;6563525;26;79269;-62
2024/04/21 04:14:32;;;;;;;1.33;0.90;;;23.50;45.40;;;;;;6546301;26;78802;-62
2024/04/21 04:17:33;;;;;;;3.08;0.70;;;23.50;45.30;;;;;;6567040;26;82289;-61
2024/04/21 04:20:33;;;;;;;0.70;0.70;;;23.50;45.50;;;;;;6542191;26;78818;-61
2024/04/21 04:23:34;;;;;;;1.77;0.82;;;23.50;45.30;;;;;;6556446;26;80420;-61
2024/04/21 04:26:34;;;;;;;1.45;0.68;;;23.50;45.40;;;;;;6561413;26;79253;-61
2024/04/21 04:29:35;;;;;;;0.98;0.60;;;23.50;45.20;;;;;;6577157;26;79075;-61
2024/04/21 04:32:35;;;;;;;1.35;0.80;;;23.50;45.20;;;;;;6566718;26;79301;-61
2024/04/21 04:35:36;;;;;;;1.23;0.75;;;23.50;45.30;;;;;;6575201;26;82018;-60
2024/04/21 04:38:36;;;;;;;3.05;0.93;;;23.50;45.20;;;;;;6575841;26;79235;-59
2024/04/21 04:41:37;;;;;;;1.75;0.90;;;23.50;45.10;;;;;;6580818;26;80014;-59
2024/04/21 04:44:37;;;;;;;3.53;0.80;;;23.50;45.00;;;;;;6566270;26;78957;-59
2024/04/21 04:47:38;;;;;;;0.85;0.80;;;23.40;44.90;;;;;;6572426;26;79122;-59
2024/04/21 04:50:38;;;;;;;1.00;0.70;;;23.40;44.90;;;;;;6558535;26;79677;-59
2024/04/21 04:53:39;;;;;;;0.68;0.60;;;23.40;44.80;;;;;;6577318;26;80955;-59
2024/04/21 04:56:39;;;;;;;0.80;0.70;;;23.40;44.90;;;;;;6555532;26;78822;-59
2024/04/21 04:59:40;;;;;;;1.00;0.90;;;23.50;44.90;;;;;;6547575;26;86881;-60
2024/04/21 05:02:40;;;;;;;1.83;0.90;;;23.40;44.70;;;;;;6583423;26;80739;-61
2024/04/21 05:05:41;;;;;;;0.70;0.70;;;23.40;45.20;;;;;;6519888;26;81328;-60
2024/04/21 05:08:41;;;;;;;2.85;1.38;;;23.50;45.20;;;;;;6527511;26;81956;-60
2024/04/21 05:11:42;;;;;;;1.08;0.80;;;23.40;44.90;;;;;;6562084;26;79317;-61
2024/04/21 05:14:43;;;;;;;2.67;1.00;;;23.40;44.90;;;;;;6551845;26;84034;-62
2024/04/21 05:17:43;;;;;;;2.63;0.70;;;23.50;44.90;;;;;;6573806;26;79078;-61
2024/04/21 05:20:44;;;;;;;0.90;0.90;;;23.50;44.70;;;;;;6570329;26;83209;-60
2024/04/21 05:23:44;;;;;;;4.40;1.13;;;23.40;44.70;;;;;;6563615;26;79359;-63
2024/04/21 05:26:45;;;;;;;0.90;0.90;;;23.50;44.70;;;;;;6591873;26;78972;-65
2024/04/21 05:29:46;;;;;;;5.43;1.17;;;23.50;45.20;;;;;;6586003;26;79167;-60
2024/04/21 05:32:47;;;;;;;2.90;0.80;;;23.40;45.50;;;;;;6584569;26;81665;-62
2024/04/21 05:35:47;;;;;;;2.80;1.00;;;23.50;45.70;;;;;;6588068;26;79059;-68
2024/04/21 05:38:48;;;;;;;1.75;0.98;;;23.40;45.50;;;;;;6578412;26;79286;-65
2024/04/21 05:41:48;;;;;;;3.63;0.93;;;23.40;45.30;;;;;;6555935;26;81117;-65
2024/04/21 05:44:49;;;;;;;2.25;0.98;;;23.40;45.30;;;;;;6567865;26;79938;-64
2024/04/21 05:47:50;;;;;;;2.88;1.00;;;23.40;45.40;;;;;;6583048;26;82459;-66
2024/04/21 05:50:50;;;;;;;3.03;1.00;;;23.40;45.70;;;;;;6605525;26;81952;-64
2024/04/21 05:53:51;;;;;;;4.05;1.42;;;23.50;45.60;;;;;;6579825;26;78956;-66
2024/04/21 05:56:51;;;;;;;2.05;1.00;;;23.50;46.50;;;;;;6592036;26;78906;-68
2024/04/21 05:59:52;;;;;;;8.07;1.65;;;23.50;47.30;;;;;;6566313;26;80285;-70
2024/04/21 06:02:52;;;;;;;3.95;1.38;;;23.50;47.40;;;;;;6566568;26;80517;-66
2024/04/21 06:05:53;;;;;;;4.97;0.90;;;23.50;47.40;;;;;;6570360;26;81037;-68
2024/04/21 06:08:53;;;;;;;4.45;1.42;;;23.50;47.40;;;;;;6565988;26;78906;-67
2024/04/21 06:11:54;;;;;;;5.85;2.35;;;23.50;47.70;;;;;;6585741;26;79472;-60
2024/04/21 06:14:55;;;;;;;3.22;1.98;;;23.60;47.80;;;;;;6574612;26;80738;-59
2024/04/21 06:17:55;;;;;;;5.22;2.28;;;23.60;48.00;;;;;;6562828;26;79963;-59
2024/04/21 06:20:56;;;;;;;5.45;1.90;;;23.50;47.90;;;;;;6583927;26;79026;-60
2024/04/21 06:23:56;;;;;;;7.00;2.22;;;23.50;48.00;;;;;;6583897;26;78928;-58
2024/04/21 06:26:57;;;;;;;4.13;1.80;;;23.60;48.00;;;;;;6596252;26;79981;-59
2024/04/21 06:29:57;;;;;;;6.50;2.05;;;23.60;48.00;;;;;;6573388;26;79708;-66
2024/04/21 06:32:58;;;;;;;14.02;2.10;;;23.60;47.40;;;;;;6581624;26;78884;-69
2024/04/21 06:35:58;;;;;;;5.05;1.65;;;23.60;47.60;;;;;;6572382;26;78946;-63
2024/04/21 06:38:59;;;;;;;3.38;1.80;;;23.60;47.60;;;;;;6600314;26;78908;-66
2024/04/21 06:41:59;;;;;;;11.13;1.80;;;23.60;47.60;;;;;;6570926;26;82045;-66
2024/04/21 06:45:00;;;;;;;3.85;1.73;;;23.60;47.60;;;;;;6566976;26;80617;-67
2024/04/21 06:48:00;;;;;;;10.38;2.30;;;23.60;47.40;;;;;;6602194;26;80421;-73
2024/04/21 06:51:01;;;;;;;5.05;2.45;;;23.60;47.70;;;;;;6619985;26;82532;-72
2024/04/21 06:54:02;;;;;;;10.68;2.33;;;23.50;47.80;;;;;;6620545;26;80927;-68
2024/04/21 06:57:03;;;;;;;6.72;2.78;;;23.50;47.70;;;;;;6618575;26;81619;-67
2024/04/21 07:00:03;;;;;;;7.13;2.65;;;23.40;47.60;;;;;;6585596;26;82560;-68
2024/04/21 07:03:04;;;;;;;22.00;3.15;;;23.40;47.10;;;;;;6564971;26;78895;-65
2024/04/21 07:06:04;;;;;;;6.10;2.28;;;23.40;46.80;;;;;;6599186;26;83908;-59
2024/04/21 07:09:05;;;;;;;2.97;2.50;;;23.30;46.60;;;;;;6577218;26;85368;-59
2024/04/21 07:12:05;;;;;;;4.65;1.92;;;23.40;46.40;;;;;;6588216;26;78788;-59
2024/04/21 07:15:06;;;;;;;8.60;2.85;;;23.30;46.00;;;;;;6595808;26;79274;-60
2024/04/21 07:18:07;;;;;;;7.00;2.35;;;23.30;45.60;;;;;;6579143;26;79586;-59
2024/04/21 07:21:07;;;;;;;5.15;2.47;;;23.20;45.60;;;;;;6595727;26;79415;-59
2024/04/21 07:24:08;;;;;;;6.18;2.40;;;23.20;45.30;;;;;;6599242;26;79058;-57
2024/04/21 07:27:08;;;;;;;8.02;2.47;;;23.20;45.20;;;;;;6580918;26;82530;-59
2024/04/21 07:30:09;;;;;;;6.53;1.95;;;23.20;45.40;;;;;;6614570;26;78995;-58
2024/04/21 07:33:10;;;;;;;5.88;2.88;;;23.20;44.30;;;;;;6574184;26;79418;-56
2024/04/21 07:36:10;;;;;;;3.38;2.30;;;23.10;42.70;;;;;;6597977;26;79646;-62
2024/04/21 07:39:12;;;;;;;3.10;1.75;;;23.10;43.60;;;;;;6576249;26;78786;-69
2024/04/21 07:42:13;;;;;;;4.40;1.80;;;23.00;43.50;;;;;;6558225;26;84854;-69
2024/04/21 07:45:13;;;;;;;2.72;2.10;;;23.10;43.20;;;;;;6580333;26;79351;-59
2024/04/21 07:48:14;;;;;;;5.63;1.92;;;23.10;42.90;;;;;;6557797;26;78989;-58
2024/04/21 07:51:14;;;;;;;2.55;1.58;;;23.10;43.20;;;;;;6576122;26;81395;-58
2024/04/21 07:54:15;;;;;;;4.57;1.80;;;23.20;43.40;;;;;;6577833;26;80612;-60
2024/04/21 07:57:15;;;;;;;1.92;1.48;;;23.20;43.60;;;;;;6583657;26;79740;-58
2024/04/21 08:00:18;;;;;;;2.97;1.50;;;23.30;43.20;;;;;;6573724;26;79169;-61
2024/04/21 08:03:18;;;;;;;2.65;1.58;;;23.30;43.30;;;;;;6596791;26;79657;-58
2024/04/21 08:06:19;;;;;;;3.85;1.63;;;23.30;43.10;;;;;;6594594;26;79711;-61
2024/04/21 08:09:19;;;;;;;5.10;1.45;;;23.30;43.10;;;;;;6591712;26;79439;-63
2024/04/21 08:12:20;;;;;;;14.23;2.25;;;23.30;43.40;;;;;;6565100;26;81997;-61
2024/04/21 08:15:20;;;;;;;6.45;1.88;;;23.30;43.70;;;;;;6590265;26;80817;-61
2024/04/21 08:18:21;;;;;;;4.65;2.00;;;23.30;43.80;;;;;;6583789;26;81856;-58
2024/04/21 08:21:21;;;;;;;12.95;1.98;;;23.30;44.10;;;;;;6587780;26;80613;-64
2024/04/21 08:24:22;;;;;;;12.95;1.95;;;23.30;44.60;;;;;;6577281;26;79201;-66
2024/04/21 08:27:23;;;;;;;6.10;2.80;;;23.30;44.10;;;;;;6590509;26;79392;-59
2024/04/21 08:30:23;;;;;;;3.80;2.05;;;23.30;44.40;;;;;;6603110;26;78906;-61
2024/04/21 08:33:24;;;;;;;8.82;2.30;;;23.30;44.30;;;;;;6573786;26;80074;-56
2024/04/21 08:36:25;;;;;;;12.63;2.40;;;23.30;44.10;;;;;;6589757;26;80069;-59
2024/04/21 08:39:25;;;;;;;5.35;1.92;;;23.40;44.10;;;;;;6579498;26;83269;-58
2024/04/21 08:42:26;;;;;;;5.90;1.92;;;23.30;43.90;;;;;;6557388;26;79110;-59
2024/04/21 08:45:26;;;;;;;7.78;1.80;;;23.30;43.80;;;;;;6579833;26;79718;-59
2024/04/21 08:48:29;;;;;;;3.45;1.50;;;23.30;43.70;;;;;;6580967;26;78981;-59
2024/04/21 08:51:29;;;;;;;4.22;1.83;;;23.30;43.70;;;;;;6556623;26;80357;-58
2024/04/21 08:54:30;;;;;;;4.25;1.95;;;23.30;43.70;;;;;;6567776;26;78900;-57
2024/04/21 08:57:30;;;;;;;8.80;2.10;;;23.30;43.60;;;;;;6592620;26;80224;-62
2024/04/21 09:00:31;;;;;;;8.30;2.15;;;23.30;44.70;;;;;;6604491;26;80940;-68
2024/04/21 09:03:31;;;;;;;5.70;2.03;;;23.30;44.40;;;;;;6584288;26;79529;-59
2024/04/21 09:06:32;;;;;;;7.13;2.30;;;23.30;44.40;;;;;;6565260;26;79311;-67
2024/04/21 09:09:33;;;;;;;5.25;2.25;;;23.30;44.30;;;;;;6582199;26;78765;-69
2024/04/21 09:12:33;;;;;;;9.00;2.22;;;23.30;44.40;;;;;;6570930;26;81002;-63
2024/04/21 09:15:34;;;;;;;3.90;1.50;;;23.40;44.80;;;;;;6575033;26;84363;-64
2024/04/21 09:18:34;;;;;;;5.78;1.55;;;23.40;45.50;;;;;;6579239;26;78837;-66
2024/04/21 09:21:35;;;;;;;5.13;1.80;;;23.40;45.30;;;;;;6595694;26;82125;-63
2024/04/21 09:24:36;;;;;;;5.20;2.00;;;23.50;45.80;;;;;;6575447;26;79400;-62
2024/04/21 09:27:36;;;;;;;6.10;2.10;;;23.50;46.50;;;;;;6566327;26;78749;-67
2024/04/21 09:30:37;;;;;;;10.93;2.20;;;23.50;47.20;;;;;;6591910;26;80807;-59
2024/04/21 09:33:37;;;;;;;4.32;2.15;;;23.50;47.00;;;;;;6540095;26;80773;-59
2024/04/21 09:36:38;;;;;;;11.05;2.72;;;23.50;47.60;;;;;;6547423;26;79495;-59
2024/04/21 09:39:38;;;;;;;4.63;1.95;;;23.60;48.00;;;;;;6550362;26;80563;-59
2024/04/21 09:42:39;;;;;;;7.28;2.95;;;23.60;47.60;;;;;;6539302;26;81926;-61
2024/04/21 09:45:39;;;;;;;9.82;2.28;;;23.60;48.50;;;;;;6550223;26;80083;-64
2024/04/21 09:48:40;;;;;;;3.15;2.00;;;23.60;48.30;;;;;;6553325;26;79857;-67
2024/04/21 09:51:40;;;;;;;3.97;2.20;;;23.70;48.50;;;;;;6550348;26;80713;-62
2024/04/21 09:54:44;;;;;;;5.20;2.30;;;23.70;48.30;;;;;;6552668;26;80249;-64
2024/04/21 09:57:45;;;;;;;9.70;3.40;;;23.70;48.10;;;;;;6551837;26;80616;-60
2024/04/21 10:00:45;;;;;;;5.60;1.80;;;23.70;48.10;;;;;;6554398;26;79425;-63
2024/04/21 10:03:46;;;;;;;2.47;1.65;;;23.70;48.00;;;;;;6550129;26;86337;-65
2024/04/21 10:06:48;;;;;;;5.32;2.25;;;23.70;47.60;;;;;;6552927;26;81574;-60
2024/04/21 10:09:48;;;;;;;2.55;2.13;;;23.70;48.00;;;;;;6554772;26;80272;-59
2024/04/21 10:12:49;;;;;;;5.18;2.40;;;23.60;49.00;;;;;;6548995;26;79947;-60
2024/04/21 10:15:49;;;;;;;4.93;2.35;;;23.70;48.10;;;;;;6551557;26;80008;-60
2024/04/21 10:18:50;;;;;;;4.43;2.28;;;23.70;48.80;;;;;;6553934;26;85670;-61
2024/04/21 10:21:51;;;;;;;6.50;2.38;;;23.70;48.50;;;;;;6548030;26;80543;-61
2024/04/21 10:24:51;;;;;;;9.25;2.28;;;23.70;48.60;;;;;;6552489;26;80044;-61
2024/04/21 10:27:52;;;;;;;5.65;2.58;;;23.70;49.80;;;;;;6551755;26;80529;-60
2024/04/21 10:30:52;;;;;;;5.10;2.17;;;23.80;50.00;;;;;;6552710;26;80328;-60
2024/04/21 10:33:53;;;;;;;7.22;2.17;;;23.80;50.30;;;;;;6547418;26;81026;-59
2024/04/21 10:36:53;;;;;;;6.18;2.38;;;23.70;50.50;;;;;;6551057;26;79308;-60
2024/04/21 10:39:54;;;;;;;4.78;2.28;;;23.80;51.50;;;;;;6550791;26;79837;-57
2024/04/21 10:42:56;;;;;;;8.43;1.95;;;23.80;52.00;;;;;;6546433;26;80296;-59
2024/04/21 10:45:58;;;;;;;4.57;2.00;;;23.80;51.60;;;;;;6551856;26;80057;-58
2024/04/21 10:48:58;;;;;;;3.97;1.98;;;23.80;51.20;;;;;;6553698;26;80766;-58
2024/04/21 10:51:59;;;;;;;8.02;2.67;;;23.80;50.80;;;;;;6553168;26;80203;-58
2024/04/21 10:54:59;;;;;;;6.15;1.98;;;23.80;50.80;;;;;;6554993;26;84054;-58
2024/04/21 10:58:00;;;;;;;3.33;1.85;;;23.80;50.70;;;;;;6556053;26;80425;-58
2024/04/21 11:01:00;;;;;;;6.72;2.40;;;23.80;50.30;;;;;;6557837;26;81305;-59
2024/04/21 11:04:03;;;;;;;3.30;2.10;;;23.80;50.30;;;;;;6552571;26;80974;-58
2024/04/21 11:07:04;;;;;;;3.33;2.30;;;23.80;49.80;;;;;;6557225;26;80719;-58
2024/04/21 11:10:04;;;;;;;3.63;2.22;;;23.80;50.00;;;;;;6550486;26;79807;-57
2024/04/21 11:13:05;;;;;;;2.63;1.60;;;23.80;49.70;;;;;;6592722;26;79117;-65
2024/04/21 11:16:05;;;;;;;8.07;2.08;;;23.80;51.50;;;;;;6591414;26;79836;-62
2024/04/21 11:19:06;;;;;;;6.72;2.15;;;23.80;51.50;;;;;;6595423;26;79900;-61
2024/04/21 11:22:06;;;;;;;6.10;1.88;;;23.80;52.10;;;;;;6574914;26;79493;-61
2024/04/21 11:25:07;;;;;;;4.38;2.00;;;23.80;52.80;;;;;;6605664;26;78854;-62
2024/04/21 11:28:08;;;;;;;4.20;1.90;;;23.80;53.30;;;;;;6589721;26;78843;-60
2024/04/21 11:31:08;;;;;;;5.80;1.92;;;23.80;53.90;;;;;;6613981;26;80404;-59
2024/04/21 11:34:09;;;;;;;9.32;3.30;;;23.80;53.50;;;;;;6583015;26;79107;-59
2024/04/21 11:37:09;;;;;;;10.45;3.78;;;23.70;53.10;;;;;;6586771;26;78925;-58
2024/04/21 11:40:10;;;;;;;14.05;5.30;;;23.70;53.50;;;;;;6573662;26;79083;-56
2024/04/21 11:43:10;;;;;;;27.00;11.45;;;23.70;54.20;;;;;;6576393;26;81266;-57
2024/04/21 11:46:11;;;;;;;30.88;11.25;;;23.70;53.60;;;;;;6572750;26;81491;-59
2024/04/21 11:49:11;;;;;;;44.58;16.35;;;23.80;54.20;;;;;;6582638;26;81318;-58
2024/04/21 11:52:12;;;;;;;59.08;17.70;;;23.80;54.40;;;;;;6560129;26;86701;-57
2024/04/21 11:55:12;;;;;;;45.97;16.95;;;23.80;54.80;;;;;;6565457;26;84418;-58
2024/04/21 11:58:13;;;;;;;45.05;16.50;;;23.70;55.10;;;;;;6583437;26;81645;-57
2024/04/21 12:01:13;;;;;;;47.35;15.57;;;23.70;55.20;;;;;;6580078;26;81894;-64
2024/04/21 12:04:14;;;;;;;42.05;13.95;;;23.70;55.10;;;;;;6582378;26;84503;-63
2024/04/21 12:07:21;;;;;;;51.67;16.33;;;23.70;55.60;;;;;;6585431;26;81563;-62
2024/04/21 12:10:22;;;;;;;65.88;18.85;;;23.70;55.50;;;;;;6562624;26;82760;-62
2024/04/21 12:13:22;;;;;;;63.03;19.48;;;23.70;56.00;;;;;;6570828;26;81601;-64
2024/04/21 12:16:23;;;;;;;65.40;21.38;;;23.80;56.20;;;;;;6563598;26;89367;-63
2024/04/21 12:19:23;;;;;;;90.07;32.97;;;23.70;56.60;;;;;;6585277;26;82389;-63
2024/04/21 12:22:24;;;;;;;111.60;35.55;;;23.70;57.80;;;;;;6576252;26;81815;-63
2024/04/21 12:25:25;;;;;;;120.13;40.42;;;23.70;57.60;;;;;;6560479;26;89002;-63
2024/04/21 12:28:26;;;;;;;118.30;47.28;;;23.60;57.30;;;;;;6580522;26;82170;-66
2024/04/21 12:31:26;;;;;;;99.32;41.15;;;23.70;57.20;;;;;;6575529;26;81944;-64
2024/04/21 12:34:27;;;;;;;81.65;35.17;;;23.60;56.50;;;;;;6581913;26;83485;-65
2024/04/21 12:37:27;;;;;;;69.45;31.58;;;23.60;55.60;;;;;;6579714;26;81546;-64
2024/04/21 12:40:28;;;;;;;68.65;29.38;;;23.60;55.40;;;;;;6567883;26;89763;-65
2024/04/21 12:43:28;;;;;;;57.83;26.15;;;23.50;54.40;;;;;;6587971;26;81709;-65
2024/04/21 12:46:29;;;;;;;68.07;24.70;;;23.50;53.70;;;;;;6588473;26;81673;-70
2024/04/21 12:49:30;;;;;;;55.05;25.10;;;23.60;53.30;;;;;;6540633;26;84351;-70
2024/04/21 12:52:30;;;;;;;56.78;24.80;;;23.60;53.80;;;;;;6560721;26;83199;-68
2024/04/21 12:55:31;;;;;;;49.85;22.63;;;23.60;54.30;;;;;;6565172;26;86309;-65
2024/04/21 12:58:31;;;;;;;50.88;22.35;;;23.60;54.50;;;;;;6563375;26;81789;-68
2024/04/21 13:01:32;;;;;;;44.85;20.27;;;23.60;54.40;;;;;;6574669;26;82371;-68
2024/04/21 13:04:32;;;;;;;49.88;20.77;;;23.60;54.40;;;;;;6558228;26;82109;-68
2024/04/21 13:07:33;;;;;;;49.88;20.23;;;23.70;54.40;;;;;;6573888;26;81945;-68
2024/04/21 13:10:33;;;;;;;42.50;19.27;;;23.60;54.60;;;;;;6592579;26;81835;-67
2024/04/21 13:13:34;;;;;;;45.13;18.23;;;23.60;54.50;;;;;;6557365;26;81425;-59
2024/04/21 13:16:34;;;;;;;38.50;16.65;;;23.60;54.80;;;;;;6572085;26;81559;-58
2024/04/21 13:19:36;;;;;;;34.80;17.15;;;23.60;54.40;;;;;;6575271;26;81473;-57
2024/04/21 13:22:37;;;;;;;39.50;16.15;;;23.60;54.60;;;;;;6567413;26;81862;-56
2024/04/21 13:25:37;;;;;;;37.63;16.90;;;23.60;54.90;;;;;;6555355;26;82225;-59
2024/04/21 13:28:38;;;;;;;34.58;15.20;;;23.60;55.20;;;;;;6577130;26;82245;-57
2024/04/21 13:31:39;;;;;;;40.78;15.63;;;23.60;54.80;;;;;;6570997;26;83744;-59
2024/04/21 13:34:39;;;;;;;29.67;14.52;;;23.70;55.00;;;;;;6565174;26;81733;-56
2024/04/21 13:37:40;;;;;;;32.47;13.10;;;23.70;55.10;;;;;;6558550;26;84299;-59
2024/04/21 13:40:40;;;;;;;31.38;13.07;;;23.70;55.30;;;;;;6541429;26;84017;-59
2024/04/21 13:43:41;;;;;;;33.08;12.45;;;23.70;55.80;;;;;;6547655;26;82812;-59
2024/04/21 13:46:41;;;;;;;22.88;11.05;;;23.70;55.40;;;;;;6546545;26;81748;-59
2024/04/21 13:49:42;;;;;;;24.48;11.10;;;23.70;55.60;;;;;;6560670;26;83657;-59
2024/04/21 13:52:42;;;;;;;24.00;10.95;;;23.70;55.40;;;;;;6522434;26;87837;-63
2024/04/21 13:55:43;;;;;;;25.70;9.50;;;23.70;55.70;;;;;;6511298;26;83656;-62
2024/04/21 13:58:44;;;;;;;25.73;10.90;;;23.70;55.40;;;;;;6525330;26;81960;-63
2024/04/21 14:01:44;;;;;;;25.17;10.15;;;23.70;55.70;;;;;;6523621;26;81743;-63
2024/04/21 14:04:45;;;;;;;20.58;8.95;;;23.70;55.90;;;;;;6473218;26;91065;-63
2024/04/21 14:07:46;;;;;;;21.02;8.63;;;23.70;55.70;;;;;;6558305;26;81432;-64
2024/04/21 14:10:46;;;;;;;21.20;8.45;;;23.70;55.70;;;;;;6573156;26;81007;-57
2024/04/21 14:13:47;;;;;;;20.23;8.50;;;23.70;55.80;;;;;;6576266;26;83553;-56
2024/04/21 14:16:47;;;;;;;20.98;8.98;;;23.70;55.50;;;;;;6572231;26;79363;-55
2024/04/21 14:19:48;;;;;;;18.40;7.32;;;23.70;55.80;;;;;;6584083;25;79065;-56
2024/04/21 14:22:48;;;;;;;16.60;7.25;;;23.70;55.70;;;;;;6571690;26;79487;-56
2024/04/21 14:25:49;;;;;;;17.45;7.95;;;23.70;55.80;;;;;;6575442;26;79899;-64
2024/04/21 14:28:50;;;;;;;15.75;7.07;;;23.70;55.80;;;;;;6579187;26;78822;-65
2024/04/21 14:31:50;;;;;;;13.05;6.85;;;23.70;55.80;;;;;;6551294;26;85164;-66
2024/04/21 14:34:51;;;;;;;14.15;6.22;;;23.60;56.70;;;;;;6558587;26;79383;-64
2024/04/21 14:37:51;;;;;;;14.13;6.72;;;23.60;55.70;;;;;;6575495;26;84762;-62
2024/04/21 14:40:52;;;;;;;17.55;5.72;;;23.60;55.80;;;;;;6593920;26;79775;-59
2024/04/21 14:43:52;;;;;;;18.73;7.03;;;23.60;55.80;;;;;;6572357;26;79204;-59
2024/04/21 14:46:53;;;;;;;21.30;7.50;;;23.60;56.60;;;;;;6581542;26;78697;-60
2024/04/21 14:49:54;;;;;;;21.55;6.55;;;23.60;56.10;;;;;;6583654;26;80747;-60
2024/04/21 14:52:56;;;;;;;19.45;6.57;;;23.70;56.20;;;;;;6582539;25;83202;-62
2024/04/21 14:55:56;;;;;;;26.55;8.25;;;23.60;57.30;;;;;;6585379;26;80858;-59
2024/04/21 14:58:57;;;;;;;13.95;5.57;;;23.60;57.20;;;;;;6546637;26;78602;-59
2024/04/21 15:01:57;;;;;;;18.30;6.18;;;23.60;57.10;;;;;;6542504;26;84045;-56
2024/04/21 15:04:58;;;;;;;12.40;5.82;;;23.60;56.80;;;;;;6552570;26;80128;-58
2024/04/21 15:07:59;;;;;;;15.43;7.57;;;23.60;56.70;;;;;;6555078;26;79922;-58
2024/04/21 15:10:59;;;;;;;14.70;7.63;;;23.60;56.40;;;;;;6556915;26;80594;-58
2024/04/21 15:14:00;;;;;;;23.30;12.13;;;23.70;56.70;;;;;;6551213;26;80562;-60
2024/04/21 15:17:00;;;;;;;13.65;7.80;;;23.60;56.50;;;;;;6553007;26;83143;-60
2024/04/21 15:20:01;;;;;;;20.52;10.65;;;23.60;56.20;;;;;;6552241;26;82769;-60
2024/04/21 15:23:02;;;;;;;22.02;12.23;;;23.60;56.10;;;;;;6548549;26;83899;-59
2024/04/21 15:26:02;;;;;;;28.23;11.82;;;23.60;56.00;;;;;;6521545;26;85176;-60
2024/04/21 15:29:03;;;;;;;17.98;9.27;;;23.60;56.40;;;;;;6541958;26;83501;-60
2024/04/21 15:32:03;;;;;;;15.52;8.30;;;23.60;56.20;;;;;;6551960;26;82624;-59
2024/04/21 15:35:04;;;;;;;17.70;8.35;;;23.60;56.50;;;;;;6549323;26;80634;-59